Weather at Belaga Airport

Public forecast

Using degrees Celsius for public forecast. Weather courtesy of forecast.io.

Closest aviation weather report (METAR) to Belaga Airport

Closest report is Bintulu Airport, 53.0 nm (98.2 km) WNW.

2024/05/21 06:00 (retrieved 44 minutes ago)

WBGB 210600Z 22008KT 170V260 9999 FEW015CB SCT016 31/26 Q1006

Closest aviation forecast (TAF) to Belaga Airport

Closest forecast is Bintulu Airport, 53.0 nm (98.2 km) WNW.

2024/05/21 06:00 (retrieved 44 minutes ago)

TAF WBGB 210500Z 2106/2206 14005KT 9999 FEW016 TEMPO 2107/2111 32010KT 5000 TSRA FEW015CB SCT016